sensor_id;sensor_type;location;lat;lon;timestamp;pressure;altitude;pressure_sealevel;temperature;humidity
45327;BME280;31062;49.678;24.560;2023-05-09T00:01:45;99191.94;;;4.79;80.67
45327;BME280;31062;49.678;24.560;2023-05-09T00:04:30;99179.75;;;4.75;80.61
45327;BME280;31062;49.678;24.560;2023-05-09T00:07:16;99394.41;;;6.09;80.55
45327;BME280;31062;49.678;24.560;2023-05-09T00:10:03;99376.41;;;6.08;80.54
45327;BME280;31062;49.678;24.560;2023-05-09T00:12:48;99374.47;;;6.03;80.33
45327;BME280;31062;49.678;24.560;2023-05-09T00:15:35;99180.25;;;4.73;80.31
45327;BME280;31062;49.678;24.560;2023-05-09T00:18:20;99377.00;;;6.01;80.37
45327;BME280;31062;49.678;24.560;2023-05-09T00:21:06;99366.25;;;5.98;80.41
45327;BME280;31062;49.678;24.560;2023-05-09T00:23:51;99324.81;;;5.66;80.42
45327;BME280;31062;49.678;24.560;2023-05-09T00:26:37;99357.63;;;5.88;80.78
45327;BME280;31062;49.678;24.560;2023-05-09T00:29:23;99361.06;;;5.94;80.32
45327;BME280;31062;49.678;24.560;2023-05-09T00:32:08;99174.81;;;4.68;80.08
45327;BME280;31062;49.678;24.560;2023-05-09T00:34:54;99332.31;;;5.65;79.60
45327;BME280;31062;49.678;24.560;2023-05-09T00:37:40;99369.44;;;6.07;79.75
45327;BME280;31062;49.678;24.560;2023-05-09T00:40:25;99206.00;;;5.00;79.36
45327;BME280;31062;49.678;24.560;2023-05-09T00:43:10;99371.94;;;6.05;79.35
45327;BME280;31062;49.678;24.560;2023-05-09T00:45:56;99173.50;;;4.74;79.14
45327;BME280;31062;49.678;24.560;2023-05-09T00:48:42;99335.59;;;5.88;78.86
45327;BME280;31062;49.678;24.560;2023-05-09T00:51:28;99187.31;;;4.93;78.13
45327;BME280;31062;49.678;24.560;2023-05-09T00:54:13;99201.22;;;5.01;78.17
45327;BME280;31062;49.678;24.560;2023-05-09T00:56:59;99394.41;;;6.09;77.85
45327;BME280;31062;49.678;24.560;2023-05-09T00:59:45;99175.56;;;4.68;77.61
45327;BME280;31062;49.678;24.560;2023-05-09T01:02:30;99175.84;;;4.65;77.78
45327;BME280;31062;49.678;24.560;2023-05-09T01:05:17;99343.03;;;5.69;78.05
45327;BME280;31062;49.678;24.560;2023-05-09T01:08:11;99344.41;;;5.57;77.61
45327;BME280;31062;49.678;24.560;2023-05-09T01:11:08;99373.47;;;5.77;78.05
45327;BME280;31062;49.678;24.560;2023-05-09T01:20:42;99365.94;;;5.53;77.66
45327;BME280;31062;49.678;24.560;2023-05-09T01:26:53;99374.91;;;5.83;76.77
45327;BME280;31062;49.678;24.560;2023-05-09T01:29:47;99172.94;;;4.51;76.89
45327;BME280;31062;49.678;24.560;2023-05-09T01:32:34;99361.53;;;5.68;76.54
45327;BME280;31062;49.678;24.560;2023-05-09T01:35:24;99281.94;;;5.27;76.06
45327;BME280;31062;49.678;24.560;2023-05-09T01:38:13;99376.38;;;5.84;75.84
45327;BME280;31062;49.678;24.560;2023-05-09T01:41:01;99366.47;;;5.75;75.28
45327;BME280;31062;49.678;24.560;2023-05-09T01:43:50;99369.78;;;5.68;74.86
45327;BME280;31062;49.678;24.560;2023-05-09T01:46:37;99208.69;;;4.46;74.75
45327;BME280;31062;49.678;24.560;2023-05-09T01:49:24;99387.56;;;5.38;74.85
45327;BME280;31062;49.678;24.560;2023-05-09T01:52:13;99399.59;;;5.34;75.16
45327;BME280;31062;49.678;24.560;2023-05-09T01:55:01;99370.25;;;5.18;75.82
45327;BME280;31062;49.678;24.560;2023-05-09T01:57:47;99367.00;;;5.14;75.92
45327;BME280;31062;49.678;24.560;2023-05-09T02:00:35;99326.50;;;4.85;75.70
45327;BME280;31062;49.678;24.560;2023-05-09T02:03:21;99209.50;;;3.94;75.53
45327;BME280;31062;49.678;24.560;2023-05-09T02:06:07;99400.84;;;4.98;75.81
45327;BME280;31062;49.678;24.560;2023-05-09T02:08:54;99360.50;;;4.82;75.77
45327;BME280;31062;49.678;24.560;2023-05-09T02:11:41;99364.50;;;4.81;76.04
45327;BME280;31062;49.678;24.560;2023-05-09T02:14:26;99192.47;;;3.60;76.17
45327;BME280;31062;49.678;24.560;2023-05-09T02:17:11;99202.16;;;3.67;76.34
45327;BME280;31062;49.678;24.560;2023-05-09T02:20:00;99360.00;;;4.78;76.57
45327;BME280;31062;49.678;24.560;2023-05-09T02:22:46;99361.97;;;4.83;76.57
45327;BME280;31062;49.678;24.560;2023-05-09T02:25:32;99160.09;;;3.53;75.87
45327;BME280;31062;49.678;24.560;2023-05-09T02:28:20;99321.16;;;4.63;75.82
45327;BME280;31062;49.678;24.560;2023-05-09T02:31:07;99139.69;;;3.49;75.47
45327;BME280;31062;49.678;24.560;2023-05-09T02:33:53;99252.25;;;4.25;75.23
45327;BME280;31062;49.678;24.560;2023-05-09T02:36:39;99173.94;;;3.78;75.08
45327;BME280;31062;49.678;24.560;2023-05-09T02:39:25;99351.41;;;4.98;75.02
45327;BME280;31062;49.678;24.560;2023-05-09T02:42:12;99182.41;;;3.80;74.30
45327;BME280;31062;49.678;24.560;2023-05-09T02:44:58;99167.00;;;3.65;74.46
45327;BME280;31062;49.678;24.560;2023-05-09T02:47:43;99339.31;;;4.71;74.23
45327;BME280;31062;49.678;24.560;2023-05-09T02:50:29;99278.94;;;4.25;74.30
45327;BME280;31062;49.678;24.560;2023-05-09T02:53:15;99328.00;;;4.45;74.39
45327;BME280;31062;49.678;24.560;2023-05-09T02:56:00;99183.56;;;3.43;74.34
45327;BME280;31062;49.678;24.560;2023-05-09T02:58:45;99151.50;;;3.21;74.34
45327;BME280;31062;49.678;24.560;2023-05-09T03:01:35;99248.00;;;3.78;73.82
45327;BME280;31062;49.678;24.560;2023-05-09T03:04:21;99358.44;;;4.47;74.30
45327;BME280;31062;49.678;24.560;2023-05-09T03:07:08;99153.09;;;2.89;74.17
45327;BME280;31062;49.678;24.560;2023-05-09T03:09:53;99154.34;;;2.82;74.59
45327;BME280;31062;49.678;24.560;2023-05-09T03:12:39;99313.78;;;3.89;75.10
45327;BME280;31062;49.678;24.560;2023-05-09T03:15:24;99358.31;;;4.17;75.22
45327;BME280;31062;49.678;24.560;2023-05-09T03:18:10;99159.06;;;2.82;75.09
45327;BME280;31062;49.678;24.560;2023-05-09T03:20:57;99187.16;;;3.05;75.16
45327;BME280;31062;49.678;24.560;2023-05-09T03:23:43;99167.78;;;2.92;75.03
45327;BME280;31062;49.678;24.560;2023-05-09T03:26:29;99158.81;;;2.85;75.28
45327;BME280;31062;49.678;24.560;2023-05-09T03:29:15;99370.03;;;4.23;74.68
45327;BME280;31062;49.678;24.560;2023-05-09T03:32:01;99157.09;;;2.77;74.89
45327;BME280;31062;49.678;24.560;2023-05-09T03:34:46;99149.38;;;2.64;74.67
45327;BME280;31062;49.678;24.560;2023-05-09T03:37:31;99181.00;;;2.65;75.13
45327;BME280;31062;49.678;24.560;2023-05-09T03:40:17;99219.56;;;2.90;75.75
45327;BME280;31062;49.678;24.560;2023-05-09T03:43:13;99344.75;;;3.67;76.14
45327;BME280;31062;49.678;24.560;2023-05-09T03:45:59;99403.28;;;4.03;76.15
45327;BME280;31062;49.678;24.560;2023-05-09T03:48:44;99225.03;;;2.90;76.05
45327;BME280;31062;49.678;24.560;2023-05-09T03:51:31;99371.88;;;3.93;76.58
45327;BME280;31062;49.678;24.560;2023-05-09T03:54:19;99359.94;;;3.85;76.77
45327;BME280;31062;49.678;24.560;2023-05-09T03:57:05;99380.28;;;4.17;76.94
45327;BME280;31062;49.678;24.560;2023-05-09T03:59:51;99382.47;;;4.30;77.13
45327;BME280;31062;49.678;24.560;2023-05-09T04:02:37;99190.66;;;3.00;76.82
45327;BME280;31062;49.678;24.560;2023-05-09T04:05:23;99383.00;;;4.28;77.50
45327;BME280;31062;49.678;24.560;2023-05-09T04:08:09;99184.69;;;2.96;77.46
45327;BME280;31062;49.678;24.560;2023-05-09T04:10:55;99189.66;;;3.03;77.48
45327;BME280;31062;49.678;24.560;2023-05-09T04:13:41;99139.66;;;2.69;77.19
45327;BME280;31062;49.678;24.560;2023-05-09T04:16:50;99191.63;;;3.08;77.72
45327;BME280;31062;49.678;24.560;2023-05-09T04:19:35;99236.41;;;3.38;77.77
45327;BME280;31062;49.678;24.560;2023-05-09T04:22:21;99246.34;;;3.41;78.29
45327;BME280;31062;49.678;24.560;2023-05-09T04:25:09;99393.56;;;4.60;78.25
45327;BME280;31062;49.678;24.560;2023-05-09T04:27:59;99321.38;;;4.18;78.53
45327;BME280;31062;49.678;24.560;2023-05-09T04:30:46;99323.84;;;4.27;78.41
45327;BME280;31062;49.678;24.560;2023-05-09T04:33:32;99204.19;;;3.61;78.70
45327;BME280;31062;49.678;24.560;2023-05-09T04:36:20;99202.91;;;3.67;79.00
45327;BME280;31062;49.678;24.560;2023-05-09T04:39:07;99389.78;;;5.09;79.39
45327;BME280;31062;49.678;24.560;2023-05-09T04:41:54;99353.34;;;5.03;80.03
45327;BME280;31062;49.678;24.560;2023-05-09T04:44:39;99416.72;;;5.52;79.27
45327;BME280;31062;49.678;24.560;2023-05-09T04:47:25;99242.59;;;4.84;79.16
45327;BME280;31062;49.678;24.560;2023-05-09T04:50:11;99401.72;;;6.26;78.71
45327;BME280;31062;49.678;24.560;2023-05-09T04:52:56;99369.94;;;6.49;77.71
45327;BME280;31062;49.678;24.560;2023-05-09T04:55:42;99279.16;;;6.38;76.49
45327;BME280;31062;49.678;24.560;2023-05-09T04:58:28;99398.63;;;7.73;74.78
45327;BME280;31062;49.678;24.560;2023-05-09T05:01:14;99412.25;;;8.24;72.45
45327;BME280;31062;49.678;24.560;2023-05-09T05:04:02;99397.69;;;8.63;70.14
45327;BME280;31062;49.678;24.560;2023-05-09T05:06:50;99394.78;;;9.02;69.35
45327;BME280;31062;49.678;24.560;2023-05-09T05:09:36;99421.44;;;9.47;67.77
45327;BME280;31062;49.678;24.560;2023-05-09T05:12:22;99399.44;;;9.91;65.92
45327;BME280;31062;49.678;24.560;2023-05-09T05:15:08;99396.69;;;10.19;63.42
45327;BME280;31062;49.678;24.560;2023-05-09T05:17:55;99400.72;;;10.46;62.06
45327;BME280;31062;49.678;24.560;2023-05-09T05:20:46;99214.44;;;9.53;61.28
45327;BME280;31062;49.678;24.560;2023-05-09T05:23:31;99231.25;;;9.99;61.08
45327;BME280;31062;49.678;24.560;2023-05-09T05:26:17;99235.47;;;10.36;59.57
45327;BME280;31062;49.678;24.560;2023-05-09T05:29:03;99309.56;;;11.17;57.66
45327;BME280;31062;49.678;24.560;2023-05-09T05:31:49;99214.47;;;10.78;56.35
45327;BME280;31062;49.678;24.560;2023-05-09T05:34:34;99250.72;;;11.26;56.20
45327;BME280;31062;49.678;24.560;2023-05-09T05:37:20;99228.88;;;11.30;54.85
45327;BME280;31062;49.678;24.560;2023-05-09T05:40:06;99389.00;;;12.58;54.61
45327;BME280;31062;49.678;24.560;2023-05-09T05:42:55;99345.25;;;12.51;52.54
45327;BME280;31062;49.678;24.560;2023-05-09T05:45:41;99348.50;;;12.73;52.19
45327;BME280;31062;49.678;24.560;2023-05-09T05:48:33;99400.25;;;13.16;51.51
45327;BME280;31062;49.678;24.560;2023-05-09T05:51:18;99390.50;;;13.32;51.50
45327;BME280;31062;49.678;24.560;2023-05-09T05:54:04;99403.50;;;13.54;50.76
45327;BME280;31062;49.678;24.560;2023-05-09T05:56:51;99271.31;;;12.81;49.16
45327;BME280;31062;49.678;24.560;2023-05-09T05:59:37;99245.00;;;12.74;47.50
45327;BME280;31062;49.678;24.560;2023-05-09T06:02:23;99398.25;;;13.83;46.80
45327;BME280;31062;49.678;24.560;2023-05-09T06:05:10;99359.44;;;13.60;43.70
45327;BME280;31062;49.678;24.560;2023-05-09T06:07:56;99403.00;;;13.73;41.98
45327;BME280;31062;49.678;24.560;2023-05-09T06:10:42;99392.13;;;13.60;40.80
45327;BME280;31062;49.678;24.560;2023-05-09T06:13:28;99178.28;;;12.09;40.26
45327;BME280;31062;49.678;24.560;2023-05-09T06:16:19;99371.56;;;13.30;40.96
45327;BME280;31062;49.678;24.560;2023-05-09T06:19:07;99387.81;;;13.41;41.88
45327;BME280;31062;49.678;24.560;2023-05-09T06:21:53;99209.34;;;12.23;40.54
45327;BME280;31062;49.678;24.560;2023-05-09T06:24:39;99386.38;;;13.40;39.70
45327;BME280;31062;49.678;24.560;2023-05-09T06:27:24;99220.25;;;12.28;39.66
45327;BME280;31062;49.678;24.560;2023-05-09T06:30:10;99366.63;;;13.21;39.97
45327;BME280;31062;49.678;24.560;2023-05-09T06:33:10;99309.59;;;12.97;39.87
45327;BME280;31062;49.678;24.560;2023-05-09T06:35:55;99385.09;;;13.59;39.77
45327;BME280;31062;49.678;24.560;2023-05-09T06:38:41;99385.03;;;13.66;39.97
45327;BME280;31062;49.678;24.560;2023-05-09T06:41:26;99395.09;;;13.62;38.59
45327;BME280;31062;49.678;24.560;2023-05-09T06:44:12;99276.75;;;12.96;37.66
45327;BME280;31062;49.678;24.560;2023-05-09T06:46:57;99268.53;;;12.81;37.49
45327;BME280;31062;49.678;24.560;2023-05-09T06:49:42;99353.59;;;13.48;36.67
45327;BME280;31062;49.678;24.560;2023-05-09T06:52:27;99339.22;;;13.35;36.72
45327;BME280;31062;49.678;24.560;2023-05-09T06:55:13;99373.22;;;13.58;36.92
45327;BME280;31062;49.678;24.560;2023-05-09T06:58:00;99231.88;;;12.67;35.71
45327;BME280;31062;49.678;24.560;2023-05-09T07:00:46;99367.25;;;13.62;36.46
45327;BME280;31062;49.678;24.560;2023-05-09T07:03:32;99324.72;;;13.36;37.52
45327;BME280;31062;49.678;24.560;2023-05-09T07:06:17;99275.53;;;13.14;35.58
45327;BME280;31062;49.678;24.560;2023-05-09T07:09:03;99305.63;;;13.08;35.40
45327;BME280;31062;49.678;24.560;2023-05-09T07:11:48;99243.03;;;12.92;34.11
45327;BME280;31062;49.678;24.560;2023-05-09T07:14:33;99365.63;;;13.76;35.06
45327;BME280;31062;49.678;24.560;2023-05-09T07:17:19;99250.41;;;12.97;34.02
45327;BME280;31062;49.678;24.560;2023-05-09T07:20:08;99171.19;;;12.48;32.72
45327;BME280;31062;49.678;24.560;2023-05-09T07:22:54;99363.00;;;13.78;33.45
45327;BME280;31062;49.678;24.560;2023-05-09T07:25:39;99350.56;;;13.79;32.81
45327;BME280;31062;49.678;24.560;2023-05-09T07:28:25;99206.94;;;12.77;31.57
45327;BME280;31062;49.678;24.560;2023-05-09T07:31:11;99327.34;;;13.76;34.00
45327;BME280;31062;49.678;24.560;2023-05-09T07:33:56;99212.75;;;12.96;33.65
45327;BME280;31062;49.678;24.560;2023-05-09T07:36:42;99309.97;;;13.68;33.17
45327;BME280;31062;49.678;24.560;2023-05-09T07:39:27;99310.22;;;13.80;34.81
45327;BME280;31062;49.678;24.560;2023-05-09T07:42:13;99342.44;;;14.08;33.01
45327;BME280;31062;49.678;24.560;2023-05-09T07:45:00;99338.09;;;14.14;33.48
45327;BME280;31062;49.678;24.560;2023-05-09T07:47:45;99362.56;;;14.23;32.35
45327;BME280;31062;49.678;24.560;2023-05-09T07:50:31;99215.06;;;13.32;31.37
45327;BME280;31062;49.678;24.560;2023-05-09T07:53:16;99292.69;;;13.87;32.26
45327;BME280;31062;49.678;24.560;2023-05-09T07:56:01;99335.06;;;14.20;32.70
45327;BME280;31062;49.678;24.560;2023-05-09T07:58:47;99335.63;;;14.18;32.19
45327;BME280;31062;49.678;24.560;2023-05-09T08:01:33;99184.25;;;13.05;32.72
45327;BME280;31062;49.678;24.560;2023-05-09T08:04:18;99208.25;;;13.25;32.08
45327;BME280;31062;49.678;24.560;2023-05-09T08:07:04;99341.22;;;14.18;33.46
45327;BME280;31062;49.678;24.560;2023-05-09T08:09:51;99274.63;;;13.71;32.93
45327;BME280;31062;49.678;24.560;2023-05-09T08:12:37;99292.84;;;14.06;32.62
45327;BME280;31062;49.678;24.560;2023-05-09T08:15:23;99330.97;;;14.21;31.95
45327;BME280;31062;49.678;24.560;2023-05-09T08:18:08;99342.38;;;14.15;32.71
45327;BME280;31062;49.678;24.560;2023-05-09T08:20:54;99320.25;;;14.17;32.94
45327;BME280;31062;49.678;24.560;2023-05-09T08:23:40;99289.91;;;14.04;33.10
45327;BME280;31062;49.678;24.560;2023-05-09T08:26:26;99223.91;;;13.55;31.56
45327;BME280;31062;49.678;24.560;2023-05-09T08:29:11;99168.06;;;13.11;31.93
45327;BME280;31062;49.678;24.560;2023-05-09T08:31:57;99326.72;;;14.03;32.19
45327;BME280;31062;49.678;24.560;2023-05-09T08:34:43;99243.66;;;13.49;33.07
45327;BME280;31062;49.678;24.560;2023-05-09T08:37:28;99185.41;;;13.02;33.72
45327;BME280;31062;49.678;24.560;2023-05-09T08:40:14;99250.22;;;13.44;34.06
45327;BME280;31062;49.678;24.560;2023-05-09T08:43:02;99301.50;;;13.59;34.32
45327;BME280;31062;49.678;24.560;2023-05-09T08:45:54;99229.94;;;13.27;33.22
45327;BME280;31062;49.678;24.560;2023-05-09T08:48:43;99262.09;;;13.62;32.91
45327;BME280;31062;49.678;24.560;2023-05-09T08:51:29;99254.31;;;13.61;31.95
45327;BME280;31062;49.678;24.560;2023-05-09T08:54:17;99331.06;;;14.13;33.05
45327;BME280;31062;49.678;24.560;2023-05-09T08:57:06;99245.97;;;13.61;32.37
45327;BME280;31062;49.678;24.560;2023-05-09T08:59:54;99232.50;;;13.49;32.53
45327;BME280;31062;49.678;24.560;2023-05-09T09:02:40;99324.84;;;14.05;33.72
45327;BME280;31062;49.678;24.560;2023-05-09T09:05:27;99285.41;;;13.92;34.18
45327;BME280;31062;49.678;24.560;2023-05-09T09:08:26;99177.78;;;13.27;33.69
45327;BME280;31062;49.678;24.560;2023-05-09T09:11:13;99318.91;;;14.36;32.94
45327;BME280;31062;49.678;24.560;2023-05-09T09:14:03;99314.16;;;14.28;32.95
45327;BME280;31062;49.678;24.560;2023-05-09T09:16:51;99162.31;;;13.34;32.66
45327;BME280;31062;49.678;24.560;2023-05-09T09:19:39;99152.97;;;13.22;32.46
45327;BME280;31062;49.678;24.560;2023-05-09T09:22:31;99281.38;;;14.02;34.18
45327;BME280;31062;49.678;24.560;2023-05-09T09:25:18;99306.94;;;14.43;32.50
45327;BME280;31062;49.678;24.560;2023-05-09T09:28:04;99303.00;;;14.28;32.04
45327;BME280;31062;49.678;24.560;2023-05-09T09:30:50;99251.88;;;13.82;32.27
45327;BME280;31062;49.678;24.560;2023-05-09T09:33:36;99141.56;;;13.10;32.55
45327;BME280;31062;49.678;24.560;2023-05-09T09:36:29;99176.31;;;13.26;32.77
45327;BME280;31062;49.678;24.560;2023-05-09T09:39:16;99244.91;;;13.73;32.75
45327;BME280;31062;49.678;24.560;2023-05-09T09:42:11;99134.50;;;12.92;32.86
45327;BME280;31062;49.678;24.560;2023-05-09T09:45:08;99140.84;;;12.85;33.28
45327;BME280;31062;49.678;24.560;2023-05-09T09:47:54;99326.78;;;13.95;31.67
45327;BME280;31062;49.678;24.560;2023-05-09T09:50:39;99300.06;;;13.92;32.82
45327;BME280;31062;49.678;24.560;2023-05-09T09:53:28;99166.00;;;13.12;32.26
45327;BME280;31062;49.678;24.560;2023-05-09T09:56:14;99119.66;;;12.89;33.19
45327;BME280;31062;49.678;24.560;2023-05-09T09:59:11;99296.09;;;14.12;33.47
45327;BME280;31062;49.678;24.560;2023-05-09T10:02:04;99286.44;;;14.13;32.65
45327;BME280;31062;49.678;24.560;2023-05-09T10:04:52;99153.38;;;13.18;33.10
45327;BME280;31062;49.678;24.560;2023-05-09T10:07:38;99293.19;;;14.10;32.52
45327;BME280;31062;49.678;24.560;2023-05-09T10:10:29;99227.44;;;13.73;33.19
45327;BME280;31062;49.678;24.560;2023-05-09T10:13:15;99240.72;;;13.82;33.22
45327;BME280;31062;49.678;24.560;2023-05-09T10:16:02;99114.28;;;12.91;33.72
45327;BME280;31062;49.678;24.560;2023-05-09T10:18:48;99277.06;;;14.18;31.92
45327;BME280;31062;49.678;24.560;2023-05-09T10:21:36;99114.84;;;13.07;32.25
45327;BME280;31062;49.678;24.560;2023-05-09T10:24:33;99204.41;;;13.72;32.00
45327;BME280;31062;49.678;24.560;2023-05-09T10:27:21;99109.59;;;13.11;31.83
45327;BME280;31062;49.678;24.560;2023-05-09T10:30:08;99131.44;;;13.39;31.49
45327;BME280;31062;49.678;24.560;2023-05-09T10:33:07;99286.25;;;14.46;32.63
45327;BME280;31062;49.678;24.560;2023-05-09T10:35:53;99110.94;;;13.44;33.23
45327;BME280;31062;49.678;24.560;2023-05-09T10:38:41;99266.84;;;14.65;32.80
45327;BME280;31062;49.678;24.560;2023-05-09T10:41:28;99162.66;;;13.99;33.43
45327;BME280;31062;49.678;24.560;2023-05-09T10:44:14;99258.50;;;14.75;34.11
45327;BME280;31062;49.678;24.560;2023-05-09T10:47:01;99130.91;;;13.68;33.82
45327;BME280;31062;49.678;24.560;2023-05-09T10:49:48;99089.59;;;13.74;33.06
45327;BME280;31062;49.678;24.560;2023-05-09T10:52:34;99219.06;;;14.61;31.89
45327;BME280;31062;49.678;24.560;2023-05-09T10:58:32;99255.75;;;14.84;31.99
45327;BME280;31062;49.678;24.560;2023-05-09T11:01:31;99123.69;;;13.82;31.94
45327;BME280;31062;49.678;24.560;2023-05-09T11:04:19;99094.50;;;13.66;30.97
45327;BME280;31062;49.678;24.560;2023-05-09T11:07:37;99241.31;;;14.78;31.34
45327;BME280;31062;49.678;24.560;2023-05-09T11:10:23;99234.91;;;14.85;32.82
45327;BME280;31062;49.678;24.560;2023-05-09T11:13:08;99239.94;;;14.96;31.65
45327;BME280;31062;49.678;24.560;2023-05-09T11:18:51;99196.44;;;14.93;30.87
45327;BME280;31062;49.678;24.560;2023-05-09T11:21:37;99067.59;;;14.05;32.37
45327;BME280;31062;49.678;24.560;2023-05-09T11:24:22;99185.38;;;14.86;30.58
45327;BME280;31062;49.678;24.560;2023-05-09T11:27:22;99175.06;;;14.69;30.67
45327;BME280;31062;49.678;24.560;2023-05-09T11:30:13;99227.59;;;14.99;31.83
45327;BME280;31062;49.678;24.560;2023-05-09T11:32:59;99228.16;;;14.88;31.91
45327;BME280;31062;49.678;24.560;2023-05-09T11:35:45;99181.56;;;14.45;31.82
45327;BME280;31062;49.678;24.560;2023-05-09T11:38:42;99138.50;;;14.38;32.57
45327;BME280;31062;49.678;24.560;2023-05-09T11:41:29;99208.47;;;14.86;30.53
45327;BME280;31062;49.678;24.560;2023-05-09T11:44:16;99204.97;;;14.95;29.83
45327;BME280;31062;49.678;24.560;2023-05-09T11:47:03;99224.09;;;15.08;30.65
45327;BME280;31062;49.678;24.560;2023-05-09T11:49:49;99233.78;;;15.07;30.45
45327;BME280;31062;49.678;24.560;2023-05-09T11:52:35;99179.53;;;14.91;31.53
45327;BME280;31062;49.678;24.560;2023-05-09T11:55:22;99169.66;;;14.90;31.37
45327;BME280;31062;49.678;24.560;2023-05-09T11:58:09;99134.97;;;14.74;31.10
45327;BME280;31062;49.678;24.560;2023-05-09T12:00:56;99156.31;;;14.89;31.41
45327;BME280;31062;49.678;24.560;2023-05-09T12:03:44;99159.41;;;15.02;29.51
45327;BME280;31062;49.678;24.560;2023-05-09T12:06:30;99174.56;;;14.99;30.02
45327;BME280;31062;49.678;24.560;2023-05-09T12:09:17;99193.97;;;15.07;29.92
45327;BME280;31062;49.678;24.560;2023-05-09T12:12:10;99006.28;;;13.78;30.14
45327;BME280;31062;49.678;24.560;2023-05-09T12:15:01;99175.41;;;14.92;30.61
45327;BME280;31062;49.678;24.560;2023-05-09T12:18:00;99095.03;;;14.35;30.84
45327;BME280;31062;49.678;24.560;2023-05-09T12:20:48;99108.47;;;14.56;30.24
45327;BME280;31062;49.678;24.560;2023-05-09T12:23:36;99007.84;;;13.98;30.70
45327;BME280;31062;49.678;24.560;2023-05-09T12:26:22;99038.91;;;14.31;30.96
45327;BME280;31062;49.678;24.560;2023-05-09T12:29:07;99056.91;;;14.47;31.23
45327;BME280;31062;49.678;24.560;2023-05-09T12:31:53;99067.06;;;14.62;30.07
45327;BME280;31062;49.678;24.560;2023-05-09T12:34:40;99156.94;;;15.26;29.59
45327;BME280;31062;49.678;24.560;2023-05-09T12:37:30;98995.13;;;14.14;28.98
45327;BME280;31062;49.678;24.560;2023-05-09T12:40:16;99094.72;;;14.77;29.81
45327;BME280;31062;49.678;24.560;2023-05-09T12:43:02;99139.75;;;15.20;29.79
45327;BME280;31062;49.678;24.560;2023-05-09T12:45:51;99140.06;;;15.24;30.38
45327;BME280;31062;49.678;24.560;2023-05-09T12:48:37;98978.56;;;14.16;31.79
45327;BME280;31062;49.678;24.560;2023-05-09T12:51:23;99131.81;;;15.26;31.54
45327;BME280;31062;49.678;24.560;2023-05-09T12:54:08;99159.03;;;15.35;31.17
45327;BME280;31062;49.678;24.560;2023-05-09T12:56:57;99115.78;;;15.07;30.32
45327;BME280;31062;49.678;24.560;2023-05-09T12:59:43;99102.69;;;15.09;30.38
45327;BME280;31062;49.678;24.560;2023-05-09T13:02:37;99096.81;;;15.05;30.41
45327;BME280;31062;49.678;24.560;2023-05-09T13:05:24;99092.09;;;14.98;29.83
45327;BME280;31062;49.678;24.560;2023-05-09T13:08:09;99009.31;;;14.36;29.24
45327;BME280;31062;49.678;24.560;2023-05-09T13:10:55;99116.94;;;15.13;29.76
45327;BME280;31062;49.678;24.560;2023-05-09T13:13:56;98956.69;;;14.13;29.20
45327;BME280;31062;49.678;24.560;2023-05-09T13:16:42;99084.91;;;15.05;29.47
45327;BME280;31062;49.678;24.560;2023-05-09T13:19:28;99106.81;;;15.28;29.56
45327;BME280;31062;49.678;24.560;2023-05-09T13:22:14;99074.19;;;15.01;30.04
45327;BME280;31062;49.678;24.560;2023-05-09T13:25:01;99137.84;;;15.22;29.72
45327;BME280;31062;49.678;24.560;2023-05-09T13:27:47;98709.19;;;12.08;29.23
45327;BME280;31062;49.678;24.560;2023-05-09T13:30:33;99114.75;;;15.02;29.01
45327;BME280;31062;49.678;24.560;2023-05-09T13:33:18;99073.84;;;14.68;29.57
45327;BME280;31062;49.678;24.560;2023-05-09T13:36:07;98972.94;;;13.97;29.19
45327;BME280;31062;49.678;24.560;2023-05-09T13:38:52;99046.34;;;14.55;28.99
45327;BME280;31062;49.678;24.560;2023-05-09T13:41:38;98925.22;;;13.83;29.15
45327;BME280;31062;49.678;24.560;2023-05-09T13:44:23;98919.50;;;13.91;28.33
45327;BME280;31062;49.678;24.560;2023-05-09T13:47:09;99093.16;;;15.13;27.69
45327;BME280;31062;49.678;24.560;2023-05-09T13:49:55;98935.41;;;14.08;30.06
45327;BME280;31062;49.678;24.560;2023-05-09T13:52:41;99098.75;;;15.13;29.70
45327;BME280;31062;49.678;24.560;2023-05-09T13:55:26;99098.59;;;15.10;30.35
45327;BME280;31062;49.678;24.560;2023-05-09T13:58:14;98920.81;;;13.90;30.09
45327;BME280;31062;49.678;24.560;2023-05-09T14:01:00;98924.47;;;13.83;30.31
45327;BME280;31062;49.678;24.560;2023-05-09T14:03:47;99011.94;;;14.34;30.73
45327;BME280;31062;49.678;24.560;2023-05-09T14:06:33;99042.97;;;14.57;29.22
45327;BME280;31062;49.678;24.560;2023-05-09T14:09:18;99074.91;;;14.83;29.20
45327;BME280;31062;49.678;24.560;2023-05-09T14:12:05;98932.25;;;13.84;28.84
45327;BME280;31062;49.678;24.560;2023-05-09T14:14:51;98924.78;;;13.87;28.93
45327;BME280;31062;49.678;24.560;2023-05-09T14:17:37;99026.25;;;14.57;29.17
45327;BME280;31062;49.678;24.560;2023-05-09T14:20:23;98794.09;;;13.16;29.59
45327;BME280;31062;49.678;24.560;2023-05-09T14:23:09;98915.88;;;14.08;32.70
45327;BME280;31062;49.678;24.560;2023-05-09T14:25:54;98905.63;;;14.10;29.82
45327;BME280;31062;49.678;24.560;2023-05-09T14:28:40;99084.03;;;15.22;29.57
45327;BME280;31062;49.678;24.560;2023-05-09T14:31:25;99000.41;;;14.76;29.91
45327;BME280;31062;49.678;24.560;2023-05-09T14:34:10;99004.22;;;14.80;29.95
45327;BME280;31062;49.678;24.560;2023-05-09T14:36:56;98937.78;;;14.30;29.48
45327;BME280;31062;49.678;24.560;2023-05-09T14:39:42;99035.66;;;14.90;30.02
45327;BME280;31062;49.678;24.560;2023-05-09T14:42:32;98892.50;;;13.84;29.99
45327;BME280;31062;49.678;24.560;2023-05-09T14:45:18;99045.53;;;14.91;30.40
45327;BME280;31062;49.678;24.560;2023-05-09T14:48:03;99017.28;;;14.68;29.89
45327;BME280;31062;49.678;24.560;2023-05-09T14:50:48;99045.53;;;14.91;29.98
45327;BME280;31062;49.678;24.560;2023-05-09T14:53:37;99019.50;;;14.79;29.24